createdAt,value
2023-04-01T00:00:27.388Z,83.04
2023-04-01T00:02:21.908Z,83.17
2023-04-01T00:04:13.320Z,82.99
2023-04-01T00:06:05.618Z,83.13
2023-04-01T00:07:57.198Z,83.02
2023-04-01T00:09:49.090Z,83.02
2023-04-01T00:11:41.076Z,82.86
2023-04-01T00:13:33.530Z,83.10
2023-04-01T00:15:25.647Z,83.33
2023-04-01T00:17:17.772Z,83.01
2023-04-01T00:19:09.299Z,83.09
2023-04-01T00:21:01.371Z,83.16
2023-04-01T00:22:53.174Z,83.29
2023-04-01T00:24:44.720Z,83.26
2023-04-01T00:26:36.646Z,83.27
2023-04-01T00:28:28.654Z,83.32
2023-04-01T00:30:20.573Z,83.22
2023-04-01T00:32:12.718Z,83.15
2023-04-01T00:34:05.032Z,83.17
2023-04-01T00:35:56.573Z,83.15
2023-04-01T00:37:48.508Z,83.18
2023-04-01T00:39:40.521Z,83.33
2023-04-01T00:41:32.364Z,83.17
2023-04-01T00:43:24.698Z,83.22
2023-04-01T00:45:46.432Z,83.24
2023-04-01T00:47:38.544Z,83.37
2023-04-01T00:49:42.052Z,83.37
2023-04-01T00:51:33.385Z,83.37
2023-04-01T00:53:25.369Z,83.53
2023-04-01T00:55:18.073Z,83.65
2023-04-01T00:57:13.918Z,83.57
2023-04-01T00:59:09.599Z,83.72
2023-04-01T01:01:02.204Z,83.74
2023-04-01T01:02:54.365Z,83.97
2023-04-01T01:04:46.279Z,84.05
2023-04-01T01:07:15.802Z,84.02
2023-04-01T01:09:09.067Z,83.94
2023-04-01T01:11:00.701Z,84.00
2023-04-01T01:13:00.929Z,84.08
2023-04-01T01:15:14.394Z,84.24
2023-04-01T01:17:31.621Z,83.99
2023-04-01T01:19:32.176Z,84.08
2023-04-01T01:21:42.837Z,84.21
2023-04-01T01:23:53.039Z,84.03
2023-04-01T01:26:09.866Z,84.16
2023-04-01T01:28:15.922Z,84.36
2023-04-01T01:30:27.458Z,84.22
2023-04-01T01:32:34.484Z,84.40
2023-04-01T01:34:47.549Z,84.39
2023-04-01T01:36:40.909Z,84.36
2023-04-01T01:38:35.322Z,84.48
2023-04-01T01:40:28.852Z,84.43
2023-04-01T01:42:22.508Z,84.40
2023-04-01T01:44:15.169Z,84.39
2023-04-01T01:46:11.864Z,84.46
2023-04-01T01:48:06.282Z,84.61
2023-04-01T01:49:58.047Z,84.67
2023-04-01T01:51:49.794Z,84.63
2023-04-01T01:53:41.664Z,84.57
2023-04-01T01:55:36.741Z,84.53
2023-04-01T01:57:32.800Z,84.61
2023-04-01T01:59:26.126Z,84.62
2023-04-01T02:01:21.875Z,84.53
2023-04-01T02:03:14.413Z,84.49
2023-04-01T02:05:06.709Z,84.49
2023-04-01T02:07:02.945Z,84.54
2023-04-01T02:09:00.453Z,84.57
2023-04-01T02:11:02.257Z,84.45
2023-04-01T02:12:59.938Z,84.39
2023-04-01T02:14:55.012Z,84.29
2023-04-01T02:16:52.640Z,84.38
2023-04-01T02:18:45.550Z,84.20
2023-04-01T02:20:39.452Z,84.17
2023-04-01T02:22:44.325Z,84.38
2023-04-01T02:24:37.046Z,84.08
2023-04-01T02:26:28.809Z,84.18
2023-04-01T02:28:21.693Z,84.18
2023-04-01T02:30:15.630Z,83.97
2023-04-01T02:32:08.662Z,84.15
2023-04-01T02:34:00.078Z,84.27
2023-04-01T02:35:51.949Z,84.14
2023-04-01T02:37:44.772Z,84.26
2023-04-01T02:39:36.667Z,84.38
2023-04-01T02:41:29.152Z,84.32
2023-04-01T02:43:20.986Z,84.35
2023-04-01T02:45:14.119Z,84.31
2023-04-01T02:47:06.215Z,84.54
2023-04-01T02:48:57.865Z,84.47
2023-04-01T02:50:49.437Z,84.44
2023-04-01T02:52:40.930Z,84.46
2023-04-01T02:54:32.780Z,84.34
2023-04-01T02:56:24.418Z,84.34
2023-04-01T02:58:16.492Z,84.40
2023-04-01T03:00:12.328Z,84.47
2023-04-01T03:02:03.988Z,84.40
2023-04-01T03:03:55.603Z,84.29
2023-04-01T03:05:47.361Z,84.38
2023-04-01T03:07:39.650Z,84.55
2023-04-01T03:09:31.280Z,84.37
2023-04-01T03:11:23.140Z,84.39
2023-04-01T03:13:14.319Z,84.41
2023-04-01T03:15:10.642Z,84.43
2023-04-01T03:17:03.273Z,84.45
2023-04-01T03:18:57.825Z,84.68
2023-04-01T03:20:49.401Z,84.48
2023-04-01T03:22:42.857Z,84.61
2023-04-01T03:24:34.653Z,84.64
2023-04-01T03:26:27.767Z,84.71
2023-04-01T03:28:19.357Z,84.75
2023-04-01T03:30:11.467Z,84.69
2023-04-01T03:32:03.271Z,84.83
2023-04-01T03:33:54.990Z,84.92
2023-04-01T03:35:46.909Z,84.82
2023-04-01T03:37:38.762Z,84.90
2023-04-01T03:39:30.350Z,84.92
2023-04-01T03:41:22.167Z,85.13
2023-04-01T03:43:14.129Z,85.15
2023-04-01T03:45:06.672Z,85.29
2023-04-01T03:46:58.680Z,85.28
2023-04-01T03:48:50.049Z,85.19
2023-04-01T03:50:41.770Z,85.48
2023-04-01T03:52:33.169Z,85.45
2023-04-01T03:54:25.064Z,85.67
2023-04-01T03:56:17.052Z,85.59
2023-04-01T03:58:09.089Z,85.62
2023-04-01T04:00:00.845Z,85.67
2023-04-01T04:01:52.679Z,85.69
2023-04-01T04:03:45.503Z,85.78
2023-04-01T04:05:36.982Z,85.94
2023-04-01T04:07:28.436Z,86.02
2023-04-01T04:09:20.436Z,85.95
2023-04-01T04:11:11.755Z,86.14
2023-04-01T04:13:03.673Z,86.25
2023-04-01T04:14:54.791Z,86.16
2023-04-01T04:16:46.667Z,86.27
2023-04-01T04:18:38.772Z,86.61
2023-04-01T04:20:30.662Z,86.59
2023-04-01T04:22:22.465Z,86.60
2023-04-01T04:24:13.737Z,86.72
2023-04-01T04:26:07.713Z,86.56
2023-04-01T04:27:59.190Z,86.61
2023-04-01T04:29:50.998Z,86.67
2023-04-01T04:31:42.651Z,86.79
2023-04-01T04:33:35.421Z,86.94
2023-04-01T04:35:26.903Z,86.67
2023-04-01T04:37:18.784Z,86.78
2023-04-01T04:39:10.736Z,86.84
2023-04-01T04:41:02.069Z,86.93
2023-04-01T04:42:53.280Z,87.00
2023-04-01T04:44:44.596Z,87.05
2023-04-01T04:46:45.169Z,87.24
2023-04-01T04:48:37.336Z,87.08
2023-04-01T04:50:28.515Z,87.10
2023-04-01T04:52:20.481Z,87.21
2023-04-01T04:54:12.418Z,87.32
2023-04-01T04:56:03.659Z,87.39
2023-04-01T04:57:54.840Z,87.14
2023-04-01T04:59:46.913Z,87.02
2023-04-01T05:01:38.681Z,87.32
2023-04-01T05:03:30.575Z,87.25
2023-04-01T05:05:22.263Z,87.45
2023-04-01T05:07:13.622Z,87.43
2023-04-01T05:09:05.376Z,87.59
2023-04-01T05:10:57.072Z,87.55
2023-04-01T05:12:48.853Z,87.60
2023-04-01T05:14:40.479Z,87.51
2023-04-01T05:16:32.587Z,87.53
2023-04-01T05:18:24.602Z,87.68
2023-04-01T05:20:17.331Z,87.50
2023-04-01T05:22:09.009Z,87.63
2023-04-01T05:24:00.482Z,87.73
2023-04-01T05:25:53.832Z,87.59
2023-04-01T05:27:45.974Z,87.86
2023-04-01T05:29:37.749Z,87.62
2023-04-01T05:31:29.298Z,87.59
2023-04-01T05:33:20.898Z,87.61
2023-04-01T05:35:12.871Z,87.52
2023-04-01T05:37:04.589Z,87.59
2023-04-01T05:38:57.546Z,87.58
2023-04-01T05:40:49.192Z,87.48
2023-04-01T05:42:40.993Z,87.53
2023-04-01T05:44:32.742Z,87.77
2023-04-01T05:46:24.857Z,87.64
2023-04-01T05:48:16.456Z,87.75
2023-04-01T05:50:08.600Z,87.52
2023-04-01T05:52:00.433Z,87.58
2023-04-01T05:53:52.019Z,87.54
2023-04-01T05:55:43.624Z,87.52
2023-04-01T05:57:35.284Z,87.70
2023-04-01T05:59:27.228Z,87.64
2023-04-01T06:01:19.898Z,87.61
2023-04-01T06:03:11.612Z,87.98
2023-04-01T06:05:15.497Z,87.83
2023-04-01T06:07:18.134Z,87.90
2023-04-01T06:09:21.155Z,88.12
2023-04-01T06:11:17.499Z,88.12
2023-04-01T06:14:01.785Z,88.04
2023-04-01T06:16:20.633Z,87.94
2023-04-01T06:18:33.899Z,87.86
2023-04-01T06:20:25.488Z,87.93
2023-04-01T06:22:44.405Z,87.76
2023-04-01T06:24:54.211Z,87.89
2023-04-01T06:27:21.765Z,87.84
2023-04-01T06:29:31.147Z,87.82
2023-04-01T06:31:31.207Z,87.75
2023-04-01T06:33:40.711Z,87.86
2023-04-01T06:35:51.885Z,87.73
2023-04-01T06:38:00.038Z,87.87
2023-04-01T06:40:10.128Z,87.58
2023-04-01T06:42:12.284Z,87.82
2023-04-01T06:44:14.406Z,87.77
2023-04-01T06:46:16.501Z,87.83
2023-04-01T06:48:32.980Z,87.78
2023-04-01T06:51:06.534Z,87.80
2023-04-01T06:53:04.061Z,87.83
2023-04-01T06:55:07.677Z,87.66
2023-04-01T06:57:06.873Z,87.60
2023-04-01T06:59:01.337Z,87.62
2023-04-01T07:00:56.081Z,87.60
2023-04-01T07:02:59.249Z,87.42
2023-04-01T07:04:52.660Z,87.51
2023-04-01T07:07:03.505Z,87.33
2023-04-01T07:08:56.920Z,87.11
2023-04-01T07:10:52.962Z,87.06
2023-04-01T07:12:48.599Z,87.10
2023-04-01T07:14:42.372Z,86.96
2023-04-01T07:16:39.337Z,86.92
2023-04-01T07:18:40.435Z,86.68
2023-04-01T07:20:38.021Z,86.59
2023-04-01T07:22:45.960Z,86.58
2023-04-01T07:24:40.546Z,86.31
2023-04-01T07:26:32.490Z,86.40
2023-04-01T07:28:23.932Z,86.34
2023-04-01T07:30:22.112Z,86.40
2023-04-01T07:32:22.893Z,86.28
2023-04-01T07:34:27.266Z,86.23
2023-04-01T07:36:28.234Z,86.20
2023-04-01T07:38:44.535Z,86.21
2023-04-01T07:41:06.052Z,85.56
2023-04-01T07:43:34.926Z,85.49
2023-04-01T07:45:39.917Z,85.21
2023-04-01T07:47:57.864Z,85.74
2023-04-01T07:50:00.445Z,85.81
2023-04-01T07:52:18.160Z,85.83
2023-04-01T07:54:15.681Z,84.99
2023-04-01T07:56:12.298Z,84.93
2023-04-01T07:58:49.219Z,84.86
2023-04-01T08:00:48.094Z,84.09
2023-04-01T08:02:46.155Z,84.21
2023-04-01T08:04:57.629Z,84.54
2023-04-01T08:06:57.795Z,84.33
2023-04-01T08:08:52.273Z,84.37
2023-04-01T08:11:02.325Z,84.30
2023-04-01T08:12:53.632Z,84.12
2023-04-01T08:14:57.460Z,84.07
2023-04-01T08:17:03.890Z,84.31
2023-04-01T08:18:55.573Z,83.77
2023-04-01T08:20:51.907Z,83.44
2023-04-01T08:22:46.559Z,83.54
2023-04-01T08:24:47.708Z,83.60
2023-04-01T08:26:46.107Z,83.69
2023-04-01T08:29:01.668Z,83.74
2023-04-01T08:31:33.099Z,83.81
2023-04-01T08:33:31.672Z,83.38
2023-04-01T08:35:39.733Z,83.30
2023-04-01T08:37:34.241Z,83.01
2023-04-01T08:39:55.959Z,83.10
2023-04-01T08:41:53.009Z,83.11
2023-04-01T08:44:17.345Z,82.88
2023-04-01T08:46:30.877Z,82.15
2023-04-01T08:48:32.080Z,82.08
2023-04-01T08:50:51.230Z,82.00
2023-04-01T08:53:04.719Z,81.53
2023-04-01T08:55:13.348Z,81.77
2023-04-01T08:57:23.216Z,81.69
2023-04-01T08:59:33.393Z,81.09
2023-04-01T09:01:43.018Z,80.67
2023-04-01T09:03:43.096Z,80.68
2023-04-01T09:05:46.979Z,79.91
2023-04-01T09:08:01.291Z,79.61
2023-04-01T09:10:08.926Z,79.45
2023-04-01T09:12:22.893Z,79.59
2023-04-01T09:14:33.023Z,79.28
2023-04-01T09:16:27.518Z,79.37
2023-04-01T09:18:38.010Z,79.49
2023-04-01T09:21:00.761Z,78.92
2023-04-01T09:22:58.733Z,79.18
2023-04-01T09:25:11.810Z,78.62
2023-04-01T09:27:04.771Z,77.78
2023-04-01T09:29:03.805Z,76.47
2023-04-01T09:31:22.173Z,76.96
2023-04-01T09:33:26.324Z,76.92
2023-04-01T09:35:47.573Z,75.29
2023-04-01T09:37:45.430Z,75.83
2023-04-01T09:40:07.257Z,74.89
2023-04-01T09:42:01.450Z,74.94
2023-04-01T09:43:58.703Z,74.75
2023-04-01T09:46:11.679Z,73.52
2023-04-01T09:48:24.959Z,71.34
2023-04-01T09:50:50.663Z,72.64
2023-04-01T09:52:58.892Z,71.79
2023-04-01T09:54:59.420Z,71.34
2023-04-01T09:57:12.175Z,70.89
2023-04-01T09:59:35.794Z,71.74
2023-04-01T10:01:48.793Z,71.69
2023-04-01T10:04:27.778Z,71.20
2023-04-01T10:06:31.098Z,70.43
2023-04-01T10:08:48.016Z,69.43
2023-04-01T10:11:04.086Z,69.47
2023-04-01T10:13:03.279Z,69.78
2023-04-01T10:15:29.692Z,70.01
2023-04-01T10:17:45.529Z,69.24
2023-04-01T10:19:54.817Z,69.43
2023-04-01T10:22:01.506Z,70.00
2023-04-01T10:24:11.209Z,69.02
2023-04-01T10:26:20.830Z,69.91
2023-04-01T10:28:18.263Z,69.32
2023-04-01T10:30:15.235Z,70.00
2023-04-01T10:32:12.583Z,70.31
2023-04-01T10:34:07.107Z,70.40
2023-04-01T10:36:01.496Z,69.95
2023-04-01T10:37:55.882Z,69.62
2023-04-01T10:40:04.931Z,70.56
2023-04-01T10:42:19.386Z,71.16
2023-04-01T10:44:28.221Z,71.38
2023-04-01T10:46:41.969Z,71.01
2023-04-01T10:48:51.735Z,71.73
2023-04-01T10:50:43.274Z,71.43
2023-04-01T10:52:59.130Z,71.14
2023-04-01T10:55:20.428Z,71.81
2023-04-01T10:57:33.370Z,71.99
2023-04-01T10:59:37.785Z,71.75
2023-04-01T11:02:20.596Z,71.66
2023-04-01T11:04:15.205Z,70.39
2023-04-01T11:06:13.143Z,70.50
2023-04-01T11:08:43.233Z,71.12
2023-04-01T11:10:46.863Z,70.85
2023-04-01T11:13:03.005Z,71.18
2023-04-01T11:15:04.180Z,71.81
2023-04-01T11:17:17.860Z,71.27
2023-04-01T11:19:34.099Z,71.96
2023-04-01T11:21:50.793Z,73.10
2023-04-01T11:24:03.955Z,73.59
2023-04-01T11:26:18.580Z,73.48
2023-04-01T11:28:28.659Z,73.60
2023-04-01T11:30:39.900Z,73.81
2023-04-01T11:32:59.288Z,72.95
2023-04-01T11:34:58.704Z,74.45
2023-04-01T11:36:57.165Z,73.90
2023-04-01T11:39:25.061Z,73.93
2023-04-01T11:41:41.885Z,74.39
2023-04-01T11:43:42.518Z,73.98
2023-04-01T11:46:03.850Z,74.07
2023-04-01T11:48:16.432Z,73.54
2023-04-01T11:50:40.060Z,72.97
2023-04-01T11:52:46.275Z,73.13
2023-04-01T11:55:03.888Z,73.18
2023-04-01T11:57:07.777Z,72.15
2023-04-01T11:59:14.849Z,72.66
2023-04-01T12:01:26.610Z,72.32
2023-04-01T12:03:35.871Z,72.83
2023-04-01T12:05:40.764Z,72.60
2023-04-01T12:07:51.205Z,73.23
2023-04-01T12:10:07.914Z,74.38
2023-04-01T12:12:30.574Z,74.30
2023-04-01T12:14:27.779Z,74.86
2023-04-01T12:16:25.510Z,74.69
2023-04-01T12:18:26.993Z,74.79
2023-04-01T12:20:27.094Z,75.29
2023-04-01T12:22:37.898Z,75.33
2023-04-01T12:24:53.096Z,75.52
2023-04-01T12:27:06.104Z,75.50
2023-04-01T12:29:17.711Z,75.36
2023-04-01T12:31:25.104Z,75.43
2023-04-01T12:33:41.687Z,75.31
2023-04-01T12:35:50.064Z,74.99
2023-04-01T12:38:09.691Z,74.99
2023-04-01T12:40:29.752Z,75.17
2023-04-01T12:42:40.235Z,75.32
2023-04-01T12:44:36.617Z,75.57
2023-04-01T12:47:04.379Z,75.67
2023-04-01T12:49:21.178Z,75.04
2023-04-01T12:51:22.219Z,75.29
2023-04-01T12:53:41.855Z,75.81
2023-04-01T12:55:42.543Z,75.01
2023-04-01T12:58:11.042Z,75.33
2023-04-01T13:00:32.707Z,74.71
2023-04-01T13:02:43.239Z,75.41
2023-04-01T13:04:56.941Z,75.44
2023-04-01T13:07:12.111Z,74.79
2023-04-01T13:09:32.087Z,74.34
2023-04-01T13:11:35.790Z,74.72
2023-04-01T13:13:37.904Z,74.70
2023-04-01T13:15:37.238Z,73.84
2023-04-01T13:17:53.841Z,72.74
2023-04-01T13:20:02.056Z,72.40
2023-04-01T13:22:10.530Z,72.61
2023-04-01T13:24:25.564Z,72.74
2023-04-01T13:26:42.292Z,73.79
2023-04-01T13:28:40.554Z,74.65
2023-04-01T13:30:38.656Z,74.82
2023-04-01T13:32:49.296Z,75.42
2023-04-01T13:34:41.339Z,76.17
2023-04-01T13:36:48.099Z,76.07
2023-04-01T13:39:06.055Z,75.87
2023-04-01T13:41:18.974Z,76.24
2023-04-01T13:43:19.508Z,76.55
2023-04-01T13:45:21.790Z,76.97
2023-04-01T13:47:31.009Z,77.05
2023-04-01T13:49:48.091Z,77.07
2023-04-01T13:52:01.213Z,77.21
2023-04-01T13:54:16.325Z,77.10
2023-04-01T13:56:36.052Z,77.17
2023-04-01T13:58:43.924Z,77.33
2023-04-01T14:00:54.922Z,77.43
2023-04-01T14:03:09.565Z,77.71
2023-04-01T14:05:22.348Z,77.30
2023-04-01T14:07:18.690Z,77.60
2023-04-01T14:09:31.252Z,77.72
2023-04-01T14:11:23.376Z,77.95
2023-04-01T14:13:45.941Z,78.10
2023-04-01T14:15:49.623Z,78.48
2023-04-01T14:18:06.172Z,78.48
2023-04-01T14:20:04.383Z,78.54
2023-04-01T14:22:02.124Z,78.76
2023-04-01T14:24:32.779Z,78.76
2023-04-01T14:26:33.192Z,78.93
2023-04-01T14:29:02.397Z,79.07
2023-04-01T14:31:31.989Z,79.08
2023-04-01T14:33:52.506Z,79.19
2023-04-01T14:36:04.309Z,79.40
2023-04-01T14:38:04.273Z,79.40
2023-04-01T14:40:14.736Z,79.44
2023-04-01T14:42:47.715Z,79.52
2023-04-01T14:45:04.314Z,79.71
2023-04-01T14:47:17.121Z,79.36
2023-04-01T14:49:25.642Z,79.33
2023-04-01T14:51:22.388Z,79.41
2023-04-01T14:53:30.139Z,79.48
2023-04-01T14:55:31.731Z,79.31
2023-04-01T14:57:32.043Z,79.23
2023-04-01T14:59:23.294Z,79.28
2023-04-01T15:01:33.700Z,79.25
2023-04-01T15:03:41.994Z,79.33
2023-04-01T15:05:52.154Z,79.45
2023-04-01T15:08:17.362Z,79.33
2023-04-01T15:10:12.716Z,79.61
2023-04-01T15:12:04.440Z,79.43
2023-04-01T15:14:05.036Z,79.45
2023-04-01T15:16:29.481Z,79.41
2023-04-01T15:18:59.697Z,78.75
2023-04-01T15:20:51.246Z,78.79
2023-04-01T15:22:54.597Z,78.66
2023-04-01T15:25:28.899Z,78.56
2023-04-01T15:27:45.481Z,78.57
2023-04-01T15:30:05.751Z,78.35
2023-04-01T15:32:15.700Z,78.57
2023-04-01T15:34:35.661Z,77.30
2023-04-01T15:36:52.199Z,78.29
2023-04-01T15:38:50.077Z,78.16
2023-04-01T15:40:52.701Z,77.87
2023-04-01T15:43:11.600Z,77.61
2023-04-01T15:45:13.044Z,77.36
2023-04-01T15:47:26.651Z,77.35
2023-04-01T15:49:42.342Z,77.39
2023-04-01T15:51:50.643Z,76.10
2023-04-01T15:53:48.580Z,76.14
2023-04-01T15:55:39.941Z,76.25
2023-04-01T15:57:55.614Z,75.86
2023-04-01T16:00:02.185Z,75.88
2023-04-01T16:02:19.747Z,75.57
2023-04-01T16:04:49.178Z,75.96
2023-04-01T16:06:51.422Z,75.71
2023-04-01T16:09:19.163Z,75.34
2023-04-01T16:11:59.152Z,75.28
2023-04-01T16:14:03.828Z,75.83
2023-04-01T16:16:23.222Z,75.68
2023-04-01T16:18:39.847Z,75.91
2023-04-01T16:20:51.095Z,75.71
2023-04-01T16:23:06.426Z,75.77
2023-04-01T16:25:32.666Z,75.75
2023-04-01T16:27:43.735Z,75.96
2023-04-01T16:30:03.124Z,76.17
2023-04-01T16:32:14.376Z,76.43
2023-04-01T16:34:15.787Z,76.41
2023-04-01T16:36:27.437Z,76.45
2023-04-01T16:38:31.037Z,76.55
2023-04-01T16:40:39.148Z,76.74
2023-04-01T16:42:47.397Z,76.75
2023-04-01T16:44:52.128Z,76.77
2023-04-01T16:46:45.514Z,77.07
2023-04-01T16:49:01.841Z,76.97
2023-04-01T16:51:00.018Z,77.14
2023-04-01T16:53:15.987Z,77.35
2023-04-01T16:55:18.572Z,77.32
2023-04-01T16:57:10.431Z,77.43
2023-04-01T16:59:15.339Z,77.53
2023-04-01T17:01:11.175Z,77.60
2023-04-01T17:03:08.510Z,77.66
2023-04-01T17:05:06.818Z,77.84
2023-04-01T17:07:09.000Z,77.86
2023-04-01T17:09:06.505Z,78.19
2023-04-01T17:11:04.212Z,78.18
2023-04-01T17:13:14.454Z,78.33
2023-04-01T17:15:11.966Z,78.58
2023-04-01T17:17:20.012Z,78.63
2023-04-01T17:19:42.145Z,78.64
2023-04-01T17:22:02.893Z,78.75
2023-04-01T17:24:10.473Z,78.76
2023-04-01T17:26:18.565Z,78.84
2023-04-01T17:28:26.324Z,79.04
2023-04-01T17:30:17.788Z,78.98
2023-04-01T17:32:21.689Z,79.06
2023-04-01T17:34:26.315Z,79.16
2023-04-01T17:36:36.454Z,79.30
2023-04-01T17:38:50.785Z,79.58
2023-04-01T17:40:57.321Z,79.79
2023-04-01T17:43:13.734Z,79.66
2023-04-01T17:45:10.858Z,79.66
2023-04-01T17:47:24.572Z,79.74
2023-04-01T17:49:34.509Z,79.83
2023-04-01T17:51:35.969Z,79.78
2023-04-01T17:53:37.804Z,79.75
2023-04-01T17:55:29.366Z,79.94
2023-04-01T17:57:39.603Z,79.83
2023-04-01T17:59:40.364Z,79.97
2023-04-01T18:01:44.797Z,79.89
2023-04-01T18:04:12.259Z,80.02
2023-04-01T18:06:09.631Z,80.12
2023-04-01T18:08:29.690Z,80.00
2023-04-01T18:10:27.428Z,80.20
2023-04-01T18:12:41.947Z,80.31
2023-04-01T18:14:52.741Z,80.39
2023-04-01T18:17:13.370Z,80.39
2023-04-01T18:19:17.892Z,80.39
2023-04-01T18:21:09.522Z,80.53
2023-04-01T18:23:07.361Z,80.47
2023-04-01T18:25:19.982Z,80.51
2023-04-01T18:27:30.471Z,80.42
2023-04-01T18:29:32.294Z,80.30
2023-04-01T18:31:33.354Z,80.39
2023-04-01T18:33:52.547Z,80.49
2023-04-01T18:36:17.083Z,80.53
2023-04-01T18:38:14.978Z,80.32
2023-04-01T18:40:26.654Z,80.16
2023-04-01T18:42:51.610Z,80.07
2023-04-01T18:44:57.299Z,79.92
2023-04-01T18:47:06.966Z,79.97
2023-04-01T18:49:21.986Z,80.13
2023-04-01T18:51:43.650Z,79.99
2023-04-01T18:53:35.644Z,80.02
2023-04-01T18:55:59.865Z,80.19
2023-04-01T18:57:54.208Z,80.12
2023-04-01T19:00:03.269Z,79.93
2023-04-01T19:02:11.520Z,80.10
2023-04-01T19:04:17.191Z,80.28
2023-04-01T19:06:20.073Z,80.23
2023-04-01T19:08:46.943Z,80.24
2023-04-01T19:10:55.461Z,80.37
2023-04-01T19:13:01.532Z,80.60
2023-04-01T19:15:17.857Z,80.64
2023-04-01T19:17:28.134Z,80.74
2023-04-01T19:19:23.721Z,80.86
2023-04-01T19:21:18.528Z,80.77
2023-04-01T19:23:37.386Z,81.03
2023-04-01T19:25:50.320Z,80.95
2023-04-01T19:28:06.755Z,81.01
2023-04-01T19:30:14.982Z,81.35
2023-04-01T19:32:28.680Z,81.35
2023-04-01T19:34:44.044Z,81.28
2023-04-01T19:37:02.327Z,81.46
2023-04-01T19:38:53.794Z,81.56
2023-04-01T19:40:55.685Z,81.60
2023-04-01T19:43:01.545Z,81.79
2023-04-01T19:45:11.832Z,81.58
2023-04-01T19:47:10.510Z,81.72
2023-04-01T19:49:23.600Z,82.00
2023-04-01T19:51:33.085Z,81.97
2023-04-01T19:53:33.061Z,82.04
2023-04-01T19:55:50.760Z,82.14
2023-04-01T19:58:06.849Z,82.22
2023-04-01T20:00:02.726Z,82.17
2023-04-01T20:01:59.398Z,82.15
2023-04-01T20:03:52.254Z,82.36
2023-04-01T20:05:51.798Z,82.20
2023-04-01T20:07:46.301Z,82.17
2023-04-01T20:09:51.891Z,82.27
2023-04-01T20:12:05.208Z,82.39
2023-04-01T20:14:27.450Z,82.42
2023-04-01T20:16:19.538Z,82.43
2023-04-01T20:18:20.051Z,82.45
2023-04-01T20:20:12.377Z,82.47
2023-04-01T20:22:05.931Z,82.44
2023-04-01T20:24:09.225Z,82.54
2023-04-01T20:26:08.423Z,82.37
2023-04-01T20:28:05.876Z,82.47
2023-04-01T20:30:35.980Z,82.62
2023-04-01T20:32:42.122Z,82.61
2023-04-01T20:35:12.386Z,82.56
2023-04-01T20:37:22.318Z,82.69
2023-04-01T20:39:32.980Z,82.65
2023-04-01T20:41:28.398Z,82.79
2023-04-01T20:43:34.529Z,82.80
2023-04-01T20:45:36.000Z,82.88
2023-04-01T20:47:57.383Z,82.90
2023-04-01T20:50:17.785Z,82.84
2023-04-01T20:52:21.632Z,82.93
2023-04-01T20:55:00.983Z,82.87
2023-04-01T20:57:17.284Z,83.12
2023-04-01T20:59:24.939Z,83.11
2023-04-01T21:01:31.390Z,83.25
2023-04-01T21:04:00.758Z,83.32
2023-04-01T21:05:59.454Z,83.32
2023-04-01T21:07:58.759Z,83.36
2023-04-01T21:10:25.821Z,83.31
2023-04-01T21:12:40.775Z,83.32
2023-04-01T21:15:13.437Z,83.06
2023-04-01T21:17:31.610Z,83.07
2023-04-01T21:19:46.224Z,82.83
2023-04-01T21:22:12.281Z,82.93
2023-04-01T21:24:36.062Z,82.94
2023-04-01T21:26:43.634Z,83.04
2023-04-01T21:29:16.704Z,82.95
2023-04-01T21:31:17.745Z,83.04
2023-04-01T21:33:18.193Z,83.13
2023-04-01T21:35:31.958Z,83.00
2023-04-01T21:37:53.149Z,83.13
2023-04-01T21:40:06.808Z,83.16
2023-04-01T21:42:12.941Z,83.33
2023-04-01T21:44:29.238Z,83.37
2023-04-01T21:46:47.126Z,83.29
2023-04-01T21:48:47.825Z,83.39
2023-04-01T21:50:43.464Z,83.36
2023-04-01T21:52:39.646Z,83.46
2023-04-01T21:55:02.109Z,83.25
2023-04-01T21:57:30.596Z,83.29
2023-04-01T21:59:57.538Z,83.15
2023-04-01T22:01:59.992Z,83.08
2023-04-01T22:04:15.455Z,82.90
2023-04-01T22:06:44.414Z,83.05
2023-04-01T22:09:01.962Z,83.06
2023-04-01T22:11:24.219Z,83.02
2023-04-01T22:13:26.136Z,82.96
2023-04-01T22:15:47.491Z,83.03
2023-04-01T22:17:50.464Z,83.16
2023-04-01T22:20:14.117Z,83.00
2023-04-01T22:22:08.008Z,83.13
2023-04-01T22:24:17.049Z,83.06
2023-04-01T22:26:19.126Z,82.99
2023-04-01T22:28:15.824Z,83.16
2023-04-01T22:30:11.588Z,82.94
2023-04-01T22:32:34.071Z,82.99
2023-04-01T22:34:51.270Z,82.90
2023-04-01T22:36:56.284Z,83.14
2023-04-01T22:39:22.206Z,83.07
2023-04-01T22:41:29.651Z,82.92
2023-04-01T22:43:39.291Z,83.01
2023-04-01T22:45:53.550Z,83.19
2023-04-01T22:47:52.616Z,83.21
2023-04-01T22:50:00.538Z,83.22
2023-04-01T22:51:58.460Z,83.21
2023-04-01T22:53:56.214Z,83.13
2023-04-01T22:55:53.298Z,83.23
2023-04-01T22:57:51.461Z,83.38
2023-04-01T22:59:47.778Z,83.41
2023-04-01T23:01:46.932Z,83.35
2023-04-01T23:03:50.032Z,83.42
2023-04-01T23:06:01.727Z,83.53
2023-04-01T23:08:31.260Z,83.45
2023-04-01T23:10:42.689Z,83.55
2023-04-01T23:12:34.576Z,83.35
2023-04-01T23:14:34.953Z,83.34
2023-04-01T23:16:34.262Z,83.12
2023-04-01T23:18:36.621Z,83.08
2023-04-01T23:20:36.817Z,82.96
2023-04-01T23:22:35.872Z,82.93
2023-04-01T23:24:48.936Z,82.68
2023-04-01T23:27:03.643Z,83.00
2023-04-01T23:28:56.880Z,82.98
2023-04-01T23:30:49.878Z,83.21
2023-04-01T23:32:41.373Z,82.93
2023-04-01T23:34:36.488Z,82.63
2023-04-01T23:36:29.700Z,82.57
2023-04-01T23:38:26.439Z,82.64
2023-04-01T23:40:18.537Z,82.67
2023-04-01T23:42:16.817Z,82.56
2023-04-01T23:44:13.115Z,82.39
2023-04-01T23:46:05.385Z,82.20
2023-04-01T23:47:56.949Z,82.29
2023-04-01T23:49:52.636Z,82.21
2023-04-01T23:51:56.357Z,82.07
2023-04-01T23:53:49.346Z,82.02
2023-04-01T23:55:42.618Z,81.89
2023-04-01T23:57:36.124Z,81.70
2023-04-01T23:59:36.418Z,82.00
